Time;durP1;ratioP1;P1;durP2;ratioP2;P2;SDS_P1;SDS_P2;PMS_P1;PMS_P2;Temp;Humidity;BMP_temperature;BMP_pressure;BME280_temperature;BME280_humidity;BME280_pressure;Samples;Min_cycle;Max_cycle;Signal;HPM_P1;HPM_P2
2022/01/16 00:01:06;;;;;;;86.60;34.70;;;;;;;-0.58;79.97;100989.64;105942;1277;98128;-71
2022/01/16 00:06:28;;;;;;;72.30;31.70;;;;;;;-0.65;79.98;100991.54;105701;1278;108887;-69
2022/01/16 00:09:00;;;;;;;74.50;32.00;;;;;;;-0.65;80.17;100989.84;105810;1277;139825;-72
2022/01/16 00:11:32;;;;;;;70.00;31.20;;;;;;;-0.63;80.66;100989.55;105911;1278;97942;-72
2022/01/16 00:14:05;;;;;;;77.40;32.10;;;;;;;-0.60;80.56;100988.23;105928;1277;97855;-71
2022/01/16 00:16:39;;;;;;;74.00;33.00;;;;;;;-0.58;80.61;100980.27;105888;1276;138446;-70
2022/01/16 00:19:11;;;;;;;82.30;34.00;;;;;;;-0.52;80.68;100977.67;105972;1277;107840;-72
2022/01/16 00:21:43;;;;;;;71.10;32.60;;;;;;;-0.48;80.63;100988.86;105926;1276;108872;-71
2022/01/16 00:24:15;;;;;;;73.60;32.80;;;;;;;-0.49;80.51;100996.21;105387;1278;139207;-71
2022/01/16 00:26:47;;;;;;;67.00;31.30;;;;;;;-0.50;80.10;100986.61;105870;1277;97810;-71
2022/01/16 00:29:19;;;;;;;75.50;33.80;;;;;;;-0.54;80.12;100972.85;105752;1277;138103;-71
2022/01/16 00:31:51;;;;;;;65.50;31.40;;;;;;;-0.56;80.24;100971.58;105891;1278;107841;-71
2022/01/16 00:34:23;;;;;;;65.10;28.90;;;;;;;-0.59;80.34;100972.70;105962;1277;106286;-71
2022/01/16 00:36:55;;;;;;;69.00;30.80;;;;;;;-0.62;80.11;100976.58;105825;1277;140569;-71
2022/01/16 00:39:28;;;;;;;70.20;31.30;;;;;;;-0.61;80.33;100979.69;105933;1277;97847;-71
2022/01/16 00:42:00;;;;;;;66.00;30.50;;;;;;;-0.60;80.45;100989.77;105774;1277;140394;-71
2022/01/16 00:44:32;;;;;;;68.90;30.80;;;;;;;-0.61;80.36;100983.95;105960;1277;107941;-72
2022/01/16 00:47:05;;;;;;;66.00;29.50;;;;;;;-0.62;80.44;100991.27;105821;1277;138549;-72
2022/01/16 00:49:39;;;;;;;67.80;30.40;;;;;;;-0.62;80.25;100972.48;105932;1277;97861;-73
2022/01/16 00:52:12;;;;;;;64.70;30.20;;;;;;;-0.62;80.14;100965.65;106002;1276;97867;-72
2022/01/16 00:54:44;;;;;;;72.20;31.30;;;;;;;-0.66;80.01;100977.52;105824;1277;139124;-72
2022/01/16 00:57:16;;;;;;;65.00;31.40;;;;;;;-0.68;80.49;100987.55;105978;1277;107957;-72
2022/01/16 00:59:48;;;;;;;61.40;29.30;;;;;;;-0.68;80.53;100991.14;105844;1277;138668;-72
2022/01/16 01:02:21;;;;;;;60.00;28.80;;;;;;;-0.67;80.47;101011.46;105811;1277;97884;-72
2022/01/16 01:04:53;;;;;;;59.90;28.00;;;;;;;-0.74;80.36;101014.52;105878;1277;139317;-71
2022/01/16 01:07:25;;;;;;;55.70;25.60;;;;;;;-0.77;80.05;101015.13;105871;1277;111515;-71
2022/01/16 01:09:57;;;;;;;54.80;25.70;;;;;;;-0.78;80.39;101005.89;105891;1276;107953;-71
2022/01/16 01:12:40;;;;;;;58.20;26.80;;;;;;;-0.79;80.43;100978.02;105884;1277;138978;-72
2022/01/16 01:15:12;;;;;;;61.70;27.10;;;;;;;-0.80;80.52;100957.16;105944;1276;97870;-71
2022/01/16 01:17:46;;;;;;;57.90;27.50;;;;;;;-0.86;80.28;100970.34;105889;1277;139093;-71
2022/01/16 01:20:20;;;;;;;58.40;28.20;;;;;;;-0.93;80.41;100980.91;105960;1277;112425;-71
2022/01/16 01:22:54;;;;;;;57.20;26.50;;;;;;;-0.95;80.34;100962.58;105811;1277;138487;-72
2022/01/16 01:25:26;;;;;;;53.90;27.30;;;;;;;-1.03;80.33;100958.64;105965;1276;108885;-69
2022/01/16 01:27:58;;;;;;;55.60;27.20;;;;;;;-1.06;80.29;100969.81;105971;1277;98465;-71
2022/01/16 01:30:30;;;;;;;58.30;27.80;;;;;;;-1.12;80.54;100940.80;105877;1277;139872;-71
2022/01/16 01:33:02;;;;;;;57.90;27.70;;;;;;;-1.14;80.53;100937.34;105837;1277;110395;-71
2022/01/16 01:35:38;;;;;;;60.40;26.40;;;;;;;-1.13;81.13;100949.13;105841;1276;138980;-70
2022/01/16 01:38:09;;;;;;;;;;;;;;;-1.14;80.66;100942.98;105900;1277;108881;-71
2022/01/16 01:40:42;;;;;;;56.50;26.30;;;;;;;-1.12;81.02;100958.39;105900;1276;125355;-70
2022/01/16 01:51:44;;;;;;;66.50;30.20;;;;;;;-1.14;80.84;100836.49;106006;1277;108913;-70
2022/01/16 01:54:17;;;;;;;69.00;32.00;;;;;;;-1.18;80.76;100823.27;107420;1276;138211;-70
2022/01/16 01:56:49;;;;;;;71.90;31.40;;;;;;;-1.22;80.88;100823.69;107525;1276;95835;-70
2022/01/16 01:59:21;;;;;;;62.40;27.80;;;;;;;-1.22;80.90;100822.16;106265;1277;139232;-70
2022/01/16 02:01:53;;;;;;;55.90;27.20;;;;;;;-1.25;80.86;100820.20;106038;1276;107969;-70
2022/01/16 02:04:25;;;;;;;57.40;26.80;;;;;;;-1.26;80.92;100857.52;105978;1276;109263;-70
2022/01/16 02:06:58;;;;;;;52.30;25.90;;;;;;;-1.28;80.57;100875.05;105832;1276;138980;-70
2022/01/16 02:09:31;;;;;;;57.70;26.70;;;;;;;-1.25;81.00;100886.92;105913;1276;97845;-70
2022/01/16 02:12:04;;;;;;;56.80;27.10;;;;;;;-1.19;80.87;100899.85;105850;1276;138597;-70
2022/01/16 02:14:51;;;;;;;56.00;28.20;;;;;;;-1.17;80.83;100900.08;106022;1276;108926;-71
2022/01/16 02:29:01;;;;;;;56.30;27.30;;;;;;;-1.28;80.76;100884.42;105798;1276;138492;-70
2022/01/16 02:31:36;;;;;;;52.70;26.60;;;;;;;-1.33;80.75;100891.64;105922;1276;109007;-70
2022/01/16 02:37:01;;;;;;;55.40;26.00;;;;;;;-1.34;81.10;100899.11;105783;1276;139449;-70
2022/01/16 02:39:36;;;;;;;55.50;25.60;;;;;;;-1.31;80.71;100896.29;105884;1276;112419;-70
2022/01/16 02:42:11;;;;;;;50.90;25.30;;;;;;;-1.24;80.73;100902.98;105910;1276;138310;-69
2022/01/16 02:44:46;;;;;;;56.80;28.00;;;;;;;-1.19;80.61;100911.63;105948;1276;108819;-72
2022/01/16 02:47:20;;;;;;;57.80;28.30;;;;;;;-1.19;80.44;100912.98;105860;1276;138720;-71
2022/01/16 02:49:53;;;;;;;53.60;27.20;;;;;;;-1.23;80.35;100908.80;106007;1276;97822;-70
2022/01/16 02:52:25;;;;;;;58.80;27.90;;;;;;;-1.31;80.25;100908.06;105896;1276;112754;-69
2022/01/16 02:55:00;;;;;;;59.90;28.20;;;;;;;-1.38;80.08;100900.89;105792;1275;138235;-71
2022/01/16 02:57:32;;;;;;;58.20;28.20;;;;;;;-1.44;79.92;100910.45;105920;1276;109196;-71
2022/01/16 03:00:05;;;;;;;60.00;29.50;;;;;;;-1.46;80.66;100905.10;105857;1276;139596;-71
2022/01/16 03:02:37;;;;;;;61.20;26.80;;;;;;;-1.43;80.62;100894.42;105977;1269;97682;-70
2022/01/16 03:05:11;;;;;;;54.30;26.90;;;;;;;-1.43;80.24;100896.64;105759;1274;138928;-70
2022/01/16 03:07:43;;;;;;;60.20;28.00;;;;;;;-1.46;80.33;100904.40;105944;1274;108982;-70
2022/01/16 03:10:35;;;;;;;56.70;27.60;;;;;;;-1.42;80.39;100900.78;105928;1274;108088;-69
2022/01/16 03:13:07;;;;;;;65.00;29.70;;;;;;;-1.38;80.37;100898.17;105770;1274;138301;-70
2022/01/16 03:15:40;;;;;;;59.70;28.40;;;;;;;-1.39;79.90;100896.77;105917;1274;97715;-70
2022/01/16 03:23:53;;;;;;;66.70;30.80;;;;;;;-1.52;79.69;100888.57;105829;1276;138273;-69
2022/01/16 03:26:25;;;;;;;64.20;30.90;;;;;;;-1.55;79.93;100894.98;105885;1274;98062;-70
2022/01/16 03:28:57;;;;;;;65.10;31.30;;;;;;;-1.58;79.81;100891.65;105801;1275;139123;-71
2022/01/16 03:31:30;;;;;;;61.70;29.80;;;;;;;-1.61;80.25;100886.30;105935;1274;112097;-70
2022/01/16 03:34:02;;;;;;;64.10;31.40;;;;;;;-1.58;80.24;100876.32;105971;1274;108799;-70
2022/01/16 03:36:34;;;;;;;63.40;31.60;;;;;;;-1.55;80.26;100862.91;105874;1274;138879;-69
2022/01/16 03:39:07;;;;;;;63.00;31.90;;;;;;;-1.52;79.97;100862.15;105958;1275;98101;-70
2022/01/16 03:41:39;;;;;;;72.60;34.00;;;;;;;-1.53;79.79;100862.98;105919;1274;138237;-70
2022/01/16 03:44:11;;;;;;;75.20;33.40;;;;;;;-1.53;79.66;100860.26;106028;1275;112503;-71
2022/01/16 03:46:45;;;;;;;72.60;35.30;;;;;;;-1.56;79.62;100860.15;106033;1274;107906;-71
2022/01/16 03:49:21;;;;;;;71.80;32.90;;;;;;;-1.61;79.41;100850.14;105848;1274;138960;-71
2022/01/16 03:51:55;;;;;;;75.80;33.50;;;;;;;-1.70;79.65;100853.12;105962;1275;97841;-71
2022/01/16 03:54:31;;;;;;;73.90;32.80;;;;;;;-1.75;79.55;100853.16;107424;1274;139672;-71
2022/01/16 03:57:03;;;;;;;71.30;34.60;;;;;;;-1.76;79.95;100855.87;107556;1274;112355;-71
2022/01/16 03:59:35;;;;;;;70.80;32.20;;;;;;;-1.74;79.85;100849.79;106268;1276;139256;-71
2022/01/16 04:02:07;;;;;;;69.90;31.50;;;;;;;-1.72;79.86;100844.88;105959;1274;109001;-71
2022/01/16 04:04:39;;;;;;;66.00;32.10;;;;;;;-1.67;79.76;100843.49;106086;1274;97868;-70
2022/01/16 04:07:16;;;;;;;73.00;33.50;;;;;;;-1.60;79.77;100843.17;105906;1273;137949;-71
2022/01/16 04:09:48;;;;;;;77.30;35.30;;;;;;;-1.55;79.81;100840.08;105946;1274;112470;-71
2022/01/16 04:12:23;;;;;;;69.40;34.50;;;;;;;-1.54;79.47;100833.27;105969;1274;139705;-71
2022/01/16 04:17:45;;;;;;;78.30;36.50;;;;;;;-1.52;79.65;100831.62;105908;1274;138184;-70
2022/01/16 04:20:17;;;;;;;82.20;36.70;;;;;;;-1.51;79.69;100836.23;105990;1274;97828;-72
2022/01/16 04:22:50;;;;;;;80.10;37.00;;;;;;;-1.53;79.59;100831.59;106014;1274;112419;-70
2022/01/16 04:25:22;;;;;;;70.80;33.40;;;;;;;-1.53;79.62;100824.27;105892;1273;138769;-69
2022/01/16 04:27:54;;;;;;;71.30;33.40;;;;;;;-1.53;79.43;100817.27;106010;1274;108839;-71
2022/01/16 04:30:26;;;;;;;73.70;33.60;;;;;;;-1.49;79.30;100819.89;105950;1274;138926;-70
2022/01/16 04:32:58;;;;;;;65.60;33.10;;;;;;;-1.51;79.12;100818.52;105918;1274;97838;-67
2022/01/16 04:35:30;;;;;;;74.40;35.10;;;;;;;-1.51;79.21;100809.12;105909;1275;138337;-70
2022/01/16 04:38:02;;;;;;;75.20;36.60;;;;;;;-1.49;79.11;100813.59;105986;1273;108984;-70
2022/01/16 04:40:43;;;;;;;77.30;36.60;;;;;;;-1.49;79.45;100814.78;105791;1274;277048;-69
2022/01/16 04:46:05;;;;;;;73.30;34.90;;;;;;;-1.54;78.93;100807.35;106030;1274;97842;-69
2022/01/16 04:48:37;;;;;;;75.60;34.90;;;;;;;-1.56;78.76;100805.77;105881;1273;138204;-70
2022/01/16 04:51:10;;;;;;;72.10;35.20;;;;;;;-1.60;78.64;100806.85;106009;1273;109235;-71
2022/01/16 04:53:42;;;;;;;69.40;33.10;;;;;;;-1.65;78.17;100805.34;105933;1274;138687;-70
2022/01/16 04:56:15;;;;;;;64.20;31.00;;;;;;;-1.71;77.94;100800.26;106004;1273;97860;-69
2022/01/16 04:58:47;;;;;;;66.40;32.10;;;;;;;-1.74;78.14;100803.08;106071;1273;98024;-69
2022/01/16 05:01:19;;;;;;;64.90;32.60;;;;;;;-1.72;78.39;100797.84;105933;1273;138302;-70
2022/01/16 05:03:52;;;;;;;70.50;33.00;;;;;;;-1.69;78.42;100800.46;106110;1274;108797;-69
2022/01/16 05:06:24;;;;;;;71.80;34.30;;;;;;;-1.67;78.22;100809.21;105903;1273;139023;-69
2022/01/16 05:08:56;;;;;;;72.20;34.70;;;;;;;-1.64;78.41;100801.11;105928;1274;97936;-70
2022/01/16 05:11:27;;;;;;;75.50;35.00;;;;;;;-1.63;77.93;100787.33;105955;1274;138358;-70
2022/01/16 05:16:49;;;;;;;71.10;34.60;;;;;;;-1.69;77.76;100777.46;106003;1274;108708;-71
2022/01/16 05:19:21;;;;;;;74.70;35.50;;;;;;;-1.73;77.65;100772.59;105824;1275;139053;-70
2022/01/16 05:21:53;;;;;;;73.50;34.30;;;;;;;-1.76;77.60;100773.35;105858;1273;97948;-70
2022/01/16 05:24:31;;;;;;;65.90;32.50;;;;;;;-1.80;77.62;100781.60;105926;1273;138903;-71
2022/01/16 05:27:04;;;;;;;72.00;34.10;;;;;;;-1.83;77.86;100779.82;105982;1274;111484;-71
2022/01/16 05:29:37;;;;;;;70.60;33.20;;;;;;;-1.84;77.63;100771.27;105835;1275;139460;-70
2022/01/16 05:32:11;;;;;;;69.40;32.80;;;;;;;-1.87;77.52;100766.76;105997;1274;108787;-70
2022/01/16 05:34:43;;;;;;;65.90;32.50;;;;;;;-1.90;77.72;100757.83;106039;1273;97864;-70
2022/01/16 05:37:15;;;;;;;64.70;32.30;;;;;;;-1.97;77.48;100750.66;105952;1273;138082;-70
2022/01/16 05:39:49;;;;;;;68.70;34.00;;;;;;;-2.07;77.28;100742.36;106012;1274;112457;-70
2022/01/16 05:42:24;;;;;;;75.80;35.60;;;;;;;-2.20;77.36;100741.68;105960;1274;138241;-70
2022/01/16 05:44:56;;;;;;;72.10;35.00;;;;;;;-2.22;77.58;100739.40;106026;1274;107417;-70
2022/01/16 05:47:28;;;;;;;76.70;34.90;;;;;;;-2.22;77.98;100735.15;105918;1273;138547;-70
2022/01/16 05:50:00;;;;;;;77.80;35.10;;;;;;;-2.20;78.08;100730.61;106070;1274;97723;-69
2022/01/16 05:52:48;;;;;;;81.70;35.80;;;;;;;-2.18;78.02;100733.38;106056;1274;112413;-70
2022/01/16 05:55:21;;;;;;;72.70;35.80;;;;;;;-2.19;78.19;100727.39;105919;1273;138685;-70
2022/01/16 05:57:53;;;;;;;86.50;38.00;;;;;;;-2.17;78.22;100723.35;106042;1273;107848;-69
2022/01/16 06:00:26;;;;;;;75.90;38.20;;;;;;;-2.12;78.42;100723.67;105954;1274;138602;-70
2022/01/16 06:02:57;;;;;;;84.80;39.60;;;;;;;-2.05;78.16;100727.60;106091;1273;97825;-69
2022/01/16 06:05:30;;;;;;;89.40;40.40;;;;;;;-1.98;78.27;100726.94;105969;1274;139060;-70
2022/01/16 06:08:08;;;;;;;91.50;40.30;;;;;;;-1.95;78.34;100721.75;105968;1273;109010;-70
2022/01/16 06:10:40;;;;;;;88.60;39.50;;;;;;;-1.94;78.28;100725.17;105988;1274;106793;-70
2022/01/16 06:13:12;;;;;;;84.80;38.70;;;;;;;-1.99;77.76;100710.55;105989;1274;138176;-71
2022/01/16 06:15:46;;;;;;;86.90;39.10;;;;;;;-2.12;77.64;100706.80;106000;1274;97820;-71
2022/01/16 06:18:18;;;;;;;85.50;40.30;;;;;;;-2.23;77.78;100703.42;105952;1274;138015;-70
2022/01/16 06:20:50;;;;;;;85.60;38.10;;;;;;;-2.24;77.88;100701.20;106032;1273;109214;-71
2022/01/16 06:23:22;;;;;;;82.00;37.80;;;;;;;-2.26;78.07;100696.38;105936;1274;139711;-71
2022/01/16 06:25:55;;;;;;;82.60;37.90;;;;;;;-2.31;78.41;100692.52;105940;1274;97808;-71
2022/01/16 06:28:29;;;;;;;80.20;36.50;;;;;;;-2.35;78.31;100682.16;106138;1274;97867;-70
2022/01/16 06:31:02;;;;;;;77.50;36.70;;;;;;;-2.37;78.35;100674.27;105943;1274;139028;-70
2022/01/16 06:33:34;;;;;;;79.10;36.80;;;;;;;-2.34;78.46;100676.90;106074;1274;108921;-70
2022/01/16 06:36:06;;;;;;;78.20;35.80;;;;;;;-2.32;78.58;100674.93;105896;1273;139067;-70
2022/01/16 06:38:38;;;;;;;73.10;34.90;;;;;;;-2.30;78.31;100673.97;106028;1274;97955;-70
2022/01/16 06:41:10;;;;;;;72.20;35.60;;;;;;;-2.28;78.16;100670.95;105922;1274;139800;-70
2022/01/16 06:43:42;;;;;;;73.70;34.30;;;;;;;-2.30;78.03;100673.98;105941;1276;111758;-70
2022/01/16 06:46:14;;;;;;;76.10;36.80;;;;;;;-2.41;78.00;100671.61;106001;1274;108953;-71
2022/01/16 06:48:46;;;;;;;76.80;35.40;;;;;;;-2.47;78.28;100672.16;106000;1274;139811;-70
2022/01/16 06:51:20;;;;;;;71.60;35.50;;;;;;;-2.47;78.62;100675.05;105989;1274;97805;-70
2022/01/16 06:53:54;;;;;;;76.50;36.60;;;;;;;-2.43;78.25;100674.45;105952;1274;138757;-71
2022/01/16 06:56:26;;;;;;;72.30;34.60;;;;;;;-2.40;78.41;100674.70;106084;1273;112477;-71
2022/01/16 06:58:58;;;;;;;69.80;33.00;;;;;;;-2.36;78.29;100680.93;106034;1274;109268;-71
2022/01/16 07:01:51;;;;;;;70.70;32.90;;;;;;;-2.31;78.38;100683.48;106037;1273;109022;-70
2022/01/16 07:04:23;;;;;;;62.40;32.20;;;;;;;-2.29;78.54;100687.95;106074;1274;97922;-70
2022/01/16 07:06:55;;;;;;;64.90;32.20;;;;;;;-2.29;77.95;100678.77;105923;1274;138047;-70
2022/01/16 07:09:27;;;;;;;68.20;31.80;;;;;;;-2.32;78.12;100679.20;106087;1274;112341;-70
2022/01/16 07:11:59;;;;;;;65.80;32.00;;;;;;;-2.33;78.44;100677.80;105921;1274;138450;-69
2022/01/16 07:14:30;;;;;;;66.90;32.20;;;;;;;-2.38;78.64;100680.20;105954;1274;108950;-70
2022/01/16 07:17:02;;;;;;;64.60;30.80;;;;;;;-2.38;78.40;100682.42;105987;1273;97904;-70
2022/01/16 07:19:35;;;;;;;59.00;29.70;;;;;;;-2.35;78.56;100696.10;105831;1275;140529;-71
2022/01/16 07:22:07;;;;;;;58.70;28.30;;;;;;;-2.33;78.60;100691.42;106031;1273;112383;-71
2022/01/16 07:24:39;;;;;;;54.10;27.10;;;;;;;-2.27;78.79;100688.88;105855;1274;139089;-71
2022/01/16 07:27:12;;;;;;;49.40;25.20;;;;;;;-2.21;78.75;100683.75;106027;1274;108851;-70
2022/01/16 07:29:43;;;;;;;52.80;27.50;;;;;;;-2.19;78.51;100688.89;105954;1273;138383;-70
2022/01/16 07:32:15;;;;;;;64.30;27.40;;;;;;;-2.15;78.63;100684.23;106044;1273;97810;-70
2022/01/16 07:34:48;;;;;;;63.10;26.50;;;;;;;-2.14;78.79;100681.20;106035;1274;112594;-70
2022/01/16 07:37:20;;;;;;;59.90;26.90;;;;;;;-2.13;78.50;100674.08;105911;1274;138235;-71
2022/01/16 07:39:52;;;;;;;54.70;25.20;;;;;;;-2.14;78.49;100675.42;106104;1274;107714;-71
2022/01/16 07:42:24;;;;;;;56.30;26.30;;;;;;;-2.17;78.66;100674.13;105904;1273;138813;-71
2022/01/16 07:44:56;;;;;;;52.90;25.30;;;;;;;-2.20;78.82;100672.68;106086;1273;97853;-70
2022/01/16 07:47:28;;;;;;;49.80;24.90;;;;;;;-2.18;78.80;100675.96;105939;1274;138907;-70
2022/01/16 07:49:59;;;;;;;51.50;25.50;;;;;;;-2.13;79.00;100680.55;106047;1273;109228;-71
2022/01/16 07:52:49;;;;;;;51.50;23.70;;;;;;;-2.04;79.50;100683.67;106102;1274;108790;-71
2022/01/16 07:55:25;;;;;;;50.80;25.50;;;;;;;-1.99;79.06;100679.17;105998;1274;138558;-70
2022/01/16 07:57:58;;;;;;;54.90;25.30;;;;;;;-1.98;78.70;100673.58;106083;1273;97843;-71
2022/01/16 08:00:36;;;;;;;48.90;24.70;;;;;;;-1.99;78.88;100667.77;105865;1276;138417;-71
2022/01/16 08:03:08;;;;;;;56.90;27.30;;;;;;;-1.96;78.86;100668.37;105906;1274;108868;-71
2022/01/16 08:05:40;;;;;;;55.30;26.40;;;;;;;-1.90;79.18;100669.02;105913;1274;138715;-71
2022/01/16 08:08:12;;;;;;;53.60;26.80;;;;;;;-1.88;79.06;100665.34;106082;1274;97847;-71
2022/01/16 08:10:44;;;;;;;59.40;26.90;;;;;;;-1.87;79.18;100659.57;106036;1276;98222;-71
2022/01/16 08:13:16;;;;;;;50.30;24.10;;;;;;;-1.83;79.38;100653.17;105948;1274;138615;-70
2022/01/16 08:15:48;;;;;;;56.30;24.80;;;;;;;-1.78;79.07;100655.52;106085;1274;108815;-71
2022/01/16 08:18:21;;;;;;;48.40;22.40;;;;;;;-1.72;79.14;100654.97;106714;1273;139146;-70
2022/01/16 08:20:53;;;;;;;54.00;23.90;;;;;;;-1.70;79.03;100648.55;106007;1274;97836;-70
2022/01/16 08:23:24;;;;;;;53.80;24.10;;;;;;;-1.64;79.01;100658.06;106018;1274;138344;-70
2022/01/16 08:25:57;;;;;;;55.90;23.30;;;;;;;-1.63;78.95;100645.45;106111;1273;113174;-71
2022/01/16 08:28:29;;;;;;;51.80;24.40;;;;;;;-1.62;78.98;100649.60;106044;1274;107274;-71
2022/01/16 08:31:01;;;;;;;60.30;26.00;;;;;;;-1.60;78.91;100649.13;105897;1274;138292;-72
2022/01/16 08:33:33;;;;;;;52.70;24.40;;;;;;;-1.58;78.97;100639.11;106051;1274;97814;-72
2022/01/16 08:36:06;;;;;;;52.00;23.40;;;;;;;-1.58;78.96;100628.90;106005;1274;138544;-71
2022/01/16 08:38:38;;;;;;;51.40;23.80;;;;;;;-1.58;78.81;100628.71;105986;1274;112504;-72
2022/01/16 08:41:10;;;;;;;47.10;22.60;;;;;;;-1.59;79.04;100628.36;106035;1274;108832;-70
2022/01/16 08:43:42;;;;;;;47.70;21.40;;;;;;;-1.59;79.22;100628.36;105873;1273;139923;-71
2022/01/16 08:46:16;;;;;;;51.70;22.30;;;;;;;-1.57;79.02;100623.46;106016;1275;98029;-70
2022/01/16 08:48:47;;;;;;;45.10;22.70;;;;;;;-1.52;79.14;100626.80;105822;1275;138108;-71
2022/01/16 08:51:21;;;;;;;51.80;23.20;;;;;;;-1.49;78.94;100621.41;106072;1274;112518;-69
2022/01/16 08:53:53;;;;;;;47.80;22.40;;;;;;;-1.48;78.76;100607.61;105979;1273;138424;-70
2022/01/16 08:56:25;;;;;;;47.00;21.50;;;;;;;-1.47;78.79;100603.70;105994;1274;109140;-71
2022/01/16 08:58:57;;;;;;;48.00;22.60;;;;;;;-1.47;78.97;100600.30;106021;1274;97844;-71
2022/01/16 09:01:29;;;;;;;45.70;21.70;;;;;;;-1.49;78.90;100590.54;105779;1276;139110;-71
2022/01/16 09:04:01;;;;;;;48.40;22.00;;;;;;;-1.48;79.10;100582.88;106105;1274;109373;-72
2022/01/16 09:06:33;;;;;;;44.10;20.50;;;;;;;-1.43;79.00;100590.00;105916;1274;138944;-71
2022/01/16 09:09:05;;;;;;;43.10;20.20;;;;;;;-1.36;79.08;100586.39;106032;1274;108725;-71
2022/01/16 09:11:37;;;;;;;42.20;20.30;;;;;;;-1.31;78.75;100581.20;105934;1273;141303;-72
2022/01/16 09:14:09;;;;;;;43.10;20.30;;;;;;;-1.24;78.89;100571.48;106024;1274;97867;-71
2022/01/16 09:16:41;;;;;;;50.20;22.30;;;;;;;-1.18;79.00;100566.98;106075;1273;109538;-69
2022/01/16 09:19:14;;;;;;;45.40;22.00;;;;;;;-1.13;78.65;100568.95;106013;1274;138290;-72
2022/01/16 09:21:46;;;;;;;48.00;22.40;;;;;;;-1.10;78.72;100572.93;106012;1274;107723;-71
2022/01/16 09:24:18;;;;;;;42.90;20.60;;;;;;;-1.05;78.92;100573.23;105900;1274;138276;-70
2022/01/16 09:26:54;;;;;;;51.60;23.50;;;;;;;-1.02;78.85;100565.44;106032;1274;97832;-71
2022/01/16 09:29:26;;;;;;;48.70;21.30;;;;;;;-0.98;78.73;100556.63;105914;1274;139683;-71
2022/01/16 09:31:58;;;;;;;51.50;21.10;;;;;;;-0.93;78.65;100549.71;106010;1274;108069;-72
2022/01/16 09:34:30;;;;;;;42.20;20.10;;;;;;;-0.88;78.68;100548.80;106023;1274;107786;-70
2022/01/16 09:37:08;;;;;;;46.90;20.40;;;;;;;-0.85;78.61;100545.28;105994;1274;138940;-71
2022/01/16 09:39:41;;;;;;;41.70;20.20;;;;;;;-0.83;78.09;100538.14;106080;1274;97962;-70
2022/01/16 09:42:13;;;;;;;45.20;21.00;;;;;;;-0.79;78.46;100530.36;105993;1274;139118;-71
2022/01/16 09:44:46;;;;;;;46.30;22.20;;;;;;;-0.74;78.54;100524.28;107040;1274;109386;-72
2022/01/16 09:47:18;;;;;;;49.30;22.50;;;;;;;-0.68;78.45;100525.45;107612;1273;108843;-71
2022/01/16 09:49:50;;;;;;;48.10;22.10;;;;;;;-0.63;78.38;100533.56;107493;1274;138071;-71
2022/01/16 09:52:23;;;;;;;46.70;21.20;;;;;;;-0.60;78.28;100535.30;107612;1273;96397;-72
2022/01/16 09:54:55;;;;;;;45.40;23.10;;;;;;;-0.60;78.02;100525.23;106126;1274;138164;-70
2022/01/16 09:57:27;;;;;;;51.70;24.90;;;;;;;-0.61;78.05;100521.29;106093;1274;106808;-72
2022/01/16 10:00:00;;;;;;;47.20;21.20;;;;;;;-0.61;78.00;100516.50;105777;1276;138608;-70
2022/01/16 10:02:32;;;;;;;46.60;21.70;;;;;;;-0.61;78.12;100509.85;106040;1274;97819;-71
2022/01/16 10:05:21;;;;;;;51.50;22.30;;;;;;;-0.60;78.06;100506.44;105944;1275;97925;-71
2022/01/16 10:07:55;;;;;;;47.20;20.90;;;;;;;-0.52;78.25;100504.89;105909;1274;139413;-71
2022/01/16 10:10:32;;;;;;;43.90;21.30;;;;;;;-0.43;78.15;100500.40;106057;1274;109020;-72
2022/01/16 10:13:23;;;;;;;52.50;23.10;;;;;;;-0.36;77.90;100488.05;105908;1274;138387;-72
2022/01/16 10:15:58;;;;;;;47.30;23.10;;;;;;;-0.26;78.13;100471.30;106037;1274;97836;-72
2022/01/16 10:18:38;;;;;;;52.80;24.30;;;;;;;-0.24;77.63;100460.73;107537;1273;139920;-71
2022/01/16 10:21:10;;;;;;;50.30;24.00;;;;;;;-0.24;77.47;100446.20;107615;1274;111459;-71
2022/01/16 10:23:45;;;;;;;47.50;23.70;;;;;;;-0.23;77.45;100439.55;107506;1273;139188;-71
2022/01/16 10:26:22;;;;;;;54.60;23.90;;;;;;;-0.24;77.53;100436.13;106954;1274;108862;-71
2022/01/16 10:28:54;;;;;;;42.60;21.60;;;;;;;-0.21;77.67;100439.06;105867;1274;97934;-69
2022/01/16 10:31:28;;;;;;;44.80;20.70;;;;;;;-0.15;77.64;100443.09;105888;1274;138751;-71
2022/01/16 10:34:00;;;;;;;45.80;20.40;;;;;;;-0.12;77.33;100441.08;105989;1274;111299;-71
2022/01/16 10:36:37;;;;;;;44.70;21.40;;;;;;;-0.10;77.60;100440.77;105854;1276;139097;-70
2022/01/16 10:39:12;;;;;;;50.20;22.70;;;;;;;-0.09;77.22;100447.10;107623;1273;108731;-72
2022/01/16 10:41:44;;;;;;;44.70;23.20;;;;;;;-0.10;77.41;100446.76;107546;1273;138569;-72
2022/01/16 10:44:34;;;;;;;49.20;22.50;;;;;;;-0.12;77.46;100443.66;107613;1273;96198;-71
2022/01/16 10:47:26;;;;;;;43.60;22.30;;;;;;;-0.08;77.44;100436.52;107529;1273;111092;-71
2022/01/16 10:50:19;;;;;;;45.90;23.00;;;;;;;-0.01;77.68;100432.17;105935;1275;138175;-71
2022/01/16 10:53:03;;;;;;;52.00;23.70;;;;;;;0.04;77.32;100431.22;106014;1274;108908;-71
2022/01/16 10:55:38;;;;;;;52.50;23.70;;;;;;;0.09;77.67;100424.95;105972;1274;139365;-71
2022/01/16 10:58:14;;;;;;;49.60;24.50;;;;;;;0.17;77.66;100417.02;106135;1274;97909;-72
2022/01/16 11:00:51;;;;;;;51.50;23.90;;;;;;;0.22;77.50;100413.68;106357;1274;138593;-71
2022/01/16 11:03:26;;;;;;;43.70;22.50;;;;;;;0.27;77.24;100408.25;106020;1275;108792;-70
2022/01/16 11:05:58;;;;;;;44.20;22.80;;;;;;;0.31;77.34;100403.68;105892;1275;139376;-72
2022/01/16 11:08:30;;;;;;;47.10;22.40;;;;;;;0.38;77.30;100403.78;107162;1274;97830;-71
2022/01/16 11:11:03;;;;;;;46.00;23.00;;;;;;;0.44;77.29;100401.95;107600;1274;95985;-71
2022/01/16 11:13:36;;;;;;;44.90;23.70;;;;;;;0.49;77.22;100398.23;106502;1273;138427;-70
2022/01/16 11:16:10;;;;;;;57.40;25.20;;;;;;;0.53;77.05;100386.83;106907;1274;108142;-70
2022/01/16 11:18:48;;;;;;;56.90;25.80;;;;;;;0.57;77.13;100381.41;107511;1274;139574;-71
2022/01/16 11:21:31;;;;;;;51.80;24.50;;;;;;;0.63;77.04;100381.29;106289;1274;97803;-71
2022/01/16 11:24:24;;;;;;;52.90;25.00;;;;;;;0.59;76.53;100382.45;107360;1274;138410;-71
2022/01/16 11:26:59;;;;;;;53.20;23.00;;;;;;;0.59;76.77;100370.47;107588;1273;112598;-72
2022/01/16 11:29:32;;;;;;;51.60;25.10;;;;;;;0.57;76.54;100362.42;107664;1273;107992;-70
2022/01/16 11:32:05;;;;;;;53.10;25.00;;;;;;;0.51;76.50;100363.53;106978;1274;137868;-71
2022/01/16 11:34:37;;;;;;;48.20;22.90;;;;;;;0.51;76.62;100359.42;106483;1274;97681;-70
2022/01/16 11:37:10;;;;;;;47.20;22.80;;;;;;;0.48;76.76;100354.27;107508;1274;138777;-71
2022/01/16 11:39:42;;;;;;;52.70;22.70;;;;;;;0.52;76.86;100355.33;107559;1274;112430;-72
2022/01/16 11:42:23;;;;;;;53.40;22.50;;;;;;;0.55;76.87;100352.14;107508;1273;138554;-71
2022/01/16 11:44:55;;;;;;;49.30;22.50;;;;;;;0.56;76.70;100347.70;107638;1273;108920;-70
2022/01/16 11:47:27;;;;;;;57.20;25.20;;;;;;;0.52;76.56;100344.73;106350;1273;97865;-71
2022/01/16 11:50:10;;;;;;;50.30;24.50;;;;;;;0.50;76.70;100343.85;106017;1274;137904;-71
2022/01/16 11:52:44;;;;;;;55.50;25.50;;;;;;;0.48;76.73;100332.20;106086;1274;111522;-71
2022/01/16 11:55:15;;;;;;;51.80;26.00;;;;;;;0.43;76.73;100329.93;105983;1274;138256;-70
2022/01/16 11:57:58;;;;;;;58.80;26.70;;;;;;;0.40;77.00;100327.67;107230;1274;108879;-71
2022/01/16 12:00:44;;;;;;;64.70;25.70;;;;;;;0.37;77.11;100323.71;106710;1274;138493;-72
2022/01/16 12:03:37;;;;;;;60.40;26.20;;;;;;;0.34;77.17;100320.93;106057;1274;97870;-70
2022/01/16 12:06:35;;;;;;;55.20;23.90;;;;;;;0.35;77.34;100316.67;106033;1274;138683;-70